sensor_id;sensor_type;location;lat;lon;timestamp;P1;durP1;ratioP1;P2;durP2;ratioP2
20844;SDS011;10583;49.084;8.646;2023-01-05T00:00:22;0.40;;;0.40;;
20844;SDS011;10583;49.084;8.646;2023-01-05T00:02:48;0.30;;;0.30;;
20844;SDS011;10583;49.084;8.646;2023-01-05T00:05:15;0.30;;;0.30;;
20844;SDS011;10583;49.084;8.646;2023-01-05T00:07:42;0.30;;;0.30;;
20844;SDS011;10583;49.084;8.646;2023-01-05T00:10:08;0.27;;;0.27;;
20844;SDS011;10583;49.084;8.646;2023-01-05T00:12:57;0.40;;;0.40;;
20844;SDS011;10583;49.084;8.646;2023-01-05T00:15:41;0.27;;;0.27;;
20844;SDS011;10583;49.084;8.646;2023-01-05T00:18:25;0.30;;;0.30;;
20844;SDS011;10583;49.084;8.646;2023-01-05T00:21:11;0.40;;;0.40;;
20844;SDS011;10583;49.084;8.646;2023-01-05T00:23:57;0.40;;;0.40;;
20844;SDS011;10583;49.084;8.646;2023-01-05T00:26:23;0.40;;;0.40;;
20844;SDS011;10583;49.084;8.646;2023-01-05T00:28:51;0.40;;;0.40;;
20844;SDS011;10583;49.084;8.646;2023-01-05T00:31:18;0.50;;;0.50;;
20844;SDS011;10583;49.084;8.646;2023-01-05T00:33:44;0.40;;;0.40;;
20844;SDS011;10583;49.084;8.646;2023-01-05T00:36:11;0.40;;;0.40;;
20844;SDS011;10583;49.084;8.646;2023-01-05T00:38:38;0.30;;;0.30;;
20844;SDS011;10583;49.084;8.646;2023-01-05T00:41:04;0.47;;;0.47;;
20844;SDS011;10583;49.084;8.646;2023-01-05T00:43:31;0.40;;;0.40;;
20844;SDS011;10583;49.084;8.646;2023-01-05T00:45:59;0.40;;;0.40;;
20844;SDS011;10583;49.084;8.646;2023-01-05T00:48:26;0.30;;;0.30;;
20844;SDS011;10583;49.084;8.646;2023-01-05T00:50:52;0.30;;;0.30;;
20844;SDS011;10583;49.084;8.646;2023-01-05T00:53:19;0.30;;;0.30;;
20844;SDS011;10583;49.084;8.646;2023-01-05T00:55:54;0.40;;;0.40;;
20844;SDS011;10583;49.084;8.646;2023-01-05T00:58:21;0.40;;;0.40;;
20844;SDS011;10583;49.084;8.646;2023-01-05T01:00:47;0.40;;;0.40;;
20844;SDS011;10583;49.084;8.646;2023-01-05T01:03:15;0.50;;;0.50;;
20844;SDS011;10583;49.084;8.646;2023-01-05T01:05:42;0.40;;;0.40;;
20844;SDS011;10583;49.084;8.646;2023-01-05T01:08:09;0.20;;;0.20;;
20844;SDS011;10583;49.084;8.646;2023-01-05T01:10:37;0.40;;;0.40;;
20844;SDS011;10583;49.084;8.646;2023-01-05T01:13:05;0.30;;;0.30;;
20844;SDS011;10583;49.084;8.646;2023-01-05T01:15:31;0.30;;;0.30;;
20844;SDS011;10583;49.084;8.646;2023-01-05T01:17:58;0.20;;;0.20;;
20844;SDS011;10583;49.084;8.646;2023-01-05T01:20:26;0.30;;;0.30;;
20844;SDS011;10583;49.084;8.646;2023-01-05T01:22:53;0.20;;;0.20;;
20844;SDS011;10583;49.084;8.646;2023-01-05T01:25:20;0.20;;;0.20;;
20844;SDS011;10583;49.084;8.646;2023-01-05T01:27:47;0.50;;;0.50;;
20844;SDS011;10583;49.084;8.646;2023-01-05T01:30:14;0.30;;;0.30;;
20844;SDS011;10583;49.084;8.646;2023-01-05T01:32:41;0.30;;;0.30;;
20844;SDS011;10583;49.084;8.646;2023-01-05T01:35:08;0.23;;;0.23;;
20844;SDS011;10583;49.084;8.646;2023-01-05T01:37:36;0.20;;;0.20;;
20844;SDS011;10583;49.084;8.646;2023-01-05T01:40:03;0.30;;;0.30;;
20844;SDS011;10583;49.084;8.646;2023-01-05T01:42:30;0.40;;;0.40;;
20844;SDS011;10583;49.084;8.646;2023-01-05T01:44:57;0.30;;;0.30;;
20844;SDS011;10583;49.084;8.646;2023-01-05T01:47:37;0.27;;;0.27;;
20844;SDS011;10583;49.084;8.646;2023-01-05T01:50:08;0.47;;;0.47;;
20844;SDS011;10583;49.084;8.646;2023-01-05T01:52:40;0.30;;;0.30;;
20844;SDS011;10583;49.084;8.646;2023-01-05T01:55:09;0.27;;;0.27;;
20844;SDS011;10583;49.084;8.646;2023-01-05T01:57:36;0.20;;;0.20;;
20844;SDS011;10583;49.084;8.646;2023-01-05T02:00:04;0.40;;;0.40;;
20844;SDS011;10583;49.084;8.646;2023-01-05T02:02:34;0.30;;;0.30;;
20844;SDS011;10583;49.084;8.646;2023-01-05T02:05:02;0.10;;;0.10;;
20844;SDS011;10583;49.084;8.646;2023-01-05T02:07:32;0.20;;;0.20;;
20844;SDS011;10583;49.084;8.646;2023-01-05T02:10:03;0.20;;;0.20;;
20844;SDS011;10583;49.084;8.646;2023-01-05T02:12:35;0.17;;;0.17;;
20844;SDS011;10583;49.084;8.646;2023-01-05T02:15:12;0.30;;;0.30;;
20844;SDS011;10583;49.084;8.646;2023-01-05T02:17:48;0.30;;;0.30;;
20844;SDS011;10583;49.084;8.646;2023-01-05T02:20:30;0.17;;;0.17;;
20844;SDS011;10583;49.084;8.646;2023-01-05T02:29:26;0.10;;;0.10;;
20844;SDS011;10583;49.084;8.646;2023-01-05T02:32:11;0.20;;;0.20;;
20844;SDS011;10583;49.084;8.646;2023-01-05T02:34:45;0.23;;;0.23;;
20844;SDS011;10583;49.084;8.646;2023-01-05T02:37:17;0.30;;;0.30;;
20844;SDS011;10583;49.084;8.646;2023-01-05T02:39:54;0.20;;;0.20;;
20844;SDS011;10583;49.084;8.646;2023-01-05T02:42:24;0.40;;;0.40;;
20844;SDS011;10583;49.084;8.646;2023-01-05T02:44:53;0.40;;;0.40;;
20844;SDS011;10583;49.084;8.646;2023-01-05T02:47:36;0.23;;;0.23;;
20844;SDS011;10583;49.084;8.646;2023-01-05T02:50:06;0.23;;;0.23;;
20844;SDS011;10583;49.084;8.646;2023-01-05T02:52:38;0.30;;;0.30;;
20844;SDS011;10583;49.084;8.646;2023-01-05T02:55:08;0.20;;;0.20;;
20844;SDS011;10583;49.084;8.646;2023-01-05T02:57:39;0.10;;;0.10;;
20844;SDS011;10583;49.084;8.646;2023-01-05T03:00:15;0.30;;;0.30;;
20844;SDS011;10583;49.084;8.646;2023-01-05T03:02:45;0.30;;;0.30;;
20844;SDS011;10583;49.084;8.646;2023-01-05T03:05:18;0.30;;;0.30;;
20844;SDS011;10583;49.084;8.646;2023-01-05T03:07:48;0.40;;;0.40;;
20844;SDS011;10583;49.084;8.646;2023-01-05T03:10:18;0.20;;;0.20;;
20844;SDS011;10583;49.084;8.646;2023-01-05T03:13:04;0.30;;;0.30;;
20844;SDS011;10583;49.084;8.646;2023-01-05T03:15:52;0.30;;;0.30;;
20844;SDS011;10583;49.084;8.646;2023-01-05T03:18:24;0.30;;;0.30;;
20844;SDS011;10583;49.084;8.646;2023-01-05T03:20:53;0.30;;;0.30;;
20844;SDS011;10583;49.084;8.646;2023-01-05T03:23:20;0.30;;;0.30;;
20844;SDS011;10583;49.084;8.646;2023-01-05T03:26:06;0.30;;;0.30;;
20844;SDS011;10583;49.084;8.646;2023-01-05T03:28:52;0.27;;;0.27;;
20844;SDS011;10583;49.084;8.646;2023-01-05T03:31:39;0.30;;;0.30;;
20844;SDS011;10583;49.084;8.646;2023-01-05T03:34:29;0.20;;;0.20;;
20844;SDS011;10583;49.084;8.646;2023-01-05T03:37:20;0.33;;;0.33;;
20844;SDS011;10583;49.084;8.646;2023-01-05T03:39:52;0.20;;;0.20;;
20844;SDS011;10583;49.084;8.646;2023-01-05T03:42:19;0.20;;;0.20;;
20844;SDS011;10583;49.084;8.646;2023-01-05T03:44:45;0.33;;;0.33;;
20844;SDS011;10583;49.084;8.646;2023-01-05T03:47:14;0.27;;;0.27;;
20844;SDS011;10583;49.084;8.646;2023-01-05T03:49:42;0.23;;;0.23;;
20844;SDS011;10583;49.084;8.646;2023-01-05T03:52:09;0.30;;;0.30;;
20844;SDS011;10583;49.084;8.646;2023-01-05T03:54:36;0.20;;;0.20;;
20844;SDS011;10583;49.084;8.646;2023-01-05T03:57:02;0.23;;;0.23;;
20844;SDS011;10583;49.084;8.646;2023-01-05T03:59:29;0.30;;;0.30;;
20844;SDS011;10583;49.084;8.646;2023-01-05T04:01:56;0.37;;;0.37;;
20844;SDS011;10583;49.084;8.646;2023-01-05T04:04:22;0.40;;;0.40;;
20844;SDS011;10583;49.084;8.646;2023-01-05T04:06:50;0.20;;;0.20;;
20844;SDS011;10583;49.084;8.646;2023-01-05T04:09:17;0.37;;;0.37;;
20844;SDS011;10583;49.084;8.646;2023-01-05T04:11:44;0.30;;;0.30;;
20844;SDS011;10583;49.084;8.646;2023-01-05T04:14:10;0.30;;;0.30;;
20844;SDS011;10583;49.084;8.646;2023-01-05T04:16:37;0.30;;;0.30;;
20844;SDS011;10583;49.084;8.646;2023-01-05T04:19:04;0.30;;;0.30;;
20844;SDS011;10583;49.084;8.646;2023-01-05T04:21:30;0.30;;;0.30;;
20844;SDS011;10583;49.084;8.646;2023-01-05T04:23:58;0.40;;;0.40;;
20844;SDS011;10583;49.084;8.646;2023-01-05T04:26:25;0.50;;;0.50;;
20844;SDS011;10583;49.084;8.646;2023-01-05T04:28:51;0.27;;;0.27;;
20844;SDS011;10583;49.084;8.646;2023-01-05T04:31:18;0.30;;;0.30;;
20844;SDS011;10583;49.084;8.646;2023-01-05T04:33:45;0.33;;;0.33;;
20844;SDS011;10583;49.084;8.646;2023-01-05T04:36:12;0.33;;;0.33;;
20844;SDS011;10583;49.084;8.646;2023-01-05T04:38:38;0.30;;;0.30;;
20844;SDS011;10583;49.084;8.646;2023-01-05T04:41:06;0.30;;;0.30;;
20844;SDS011;10583;49.084;8.646;2023-01-05T04:43:33;0.40;;;0.40;;
20844;SDS011;10583;49.084;8.646;2023-01-05T04:45:59;0.40;;;0.40;;
20844;SDS011;10583;49.084;8.646;2023-01-05T04:48:26;0.30;;;0.30;;
20844;SDS011;10583;49.084;8.646;2023-01-05T04:50:53;0.30;;;0.30;;
20844;SDS011;10583;49.084;8.646;2023-01-05T04:53:20;0.40;;;0.40;;
20844;SDS011;10583;49.084;8.646;2023-01-05T04:55:48;0.40;;;0.40;;
20844;SDS011;10583;49.084;8.646;2023-01-05T04:58:16;0.90;;;0.90;;
20844;SDS011;10583;49.084;8.646;2023-01-05T05:00:42;0.53;;;0.53;;
20844;SDS011;10583;49.084;8.646;2023-01-05T05:03:09;0.47;;;0.47;;
20844;SDS011;10583;49.084;8.646;2023-01-05T05:05:36;0.60;;;0.60;;
20844;SDS011;10583;49.084;8.646;2023-01-05T05:08:02;0.50;;;0.50;;
20844;SDS011;10583;49.084;8.646;2023-01-05T05:10:29;0.50;;;0.50;;
20844;SDS011;10583;49.084;8.646;2023-01-05T05:12:57;0.60;;;0.60;;
20844;SDS011;10583;49.084;8.646;2023-01-05T05:15:25;0.43;;;0.43;;
20844;SDS011;10583;49.084;8.646;2023-01-05T05:17:52;0.73;;;0.73;;
20844;SDS011;10583;49.084;8.646;2023-01-05T05:20:18;0.60;;;0.60;;
20844;SDS011;10583;49.084;8.646;2023-01-05T05:22:45;1.03;;;1.03;;
20844;SDS011;10583;49.084;8.646;2023-01-05T05:25:12;0.70;;;0.70;;
20844;SDS011;10583;49.084;8.646;2023-01-05T05:27:39;0.50;;;0.50;;
20844;SDS011;10583;49.084;8.646;2023-01-05T05:30:06;0.73;;;0.73;;
20844;SDS011;10583;49.084;8.646;2023-01-05T05:32:34;0.60;;;0.60;;
20844;SDS011;10583;49.084;8.646;2023-01-05T05:35:01;0.80;;;0.80;;
20844;SDS011;10583;49.084;8.646;2023-01-05T05:37:28;0.80;;;0.80;;
20844;SDS011;10583;49.084;8.646;2023-01-05T05:39:54;0.93;;;0.93;;
20844;SDS011;10583;49.084;8.646;2023-01-05T05:42:21;1.13;;;1.13;;
20844;SDS011;10583;49.084;8.646;2023-01-05T05:44:48;0.90;;;0.90;;
20844;SDS011;10583;49.084;8.646;2023-01-05T05:47:16;1.20;;;1.20;;
20844;SDS011;10583;49.084;8.646;2023-01-05T05:49:44;0.90;;;0.90;;
20844;SDS011;10583;49.084;8.646;2023-01-05T05:52:11;0.93;;;0.93;;
20844;SDS011;10583;49.084;8.646;2023-01-05T05:54:37;0.93;;;0.93;;
20844;SDS011;10583;49.084;8.646;2023-01-05T05:57:04;1.10;;;1.10;;
20844;SDS011;10583;49.084;8.646;2023-01-05T05:59:31;1.43;;;1.43;;
20844;SDS011;10583;49.084;8.646;2023-01-05T06:01:57;0.97;;;0.97;;
20844;SDS011;10583;49.084;8.646;2023-01-05T06:04:24;0.87;;;0.87;;
20844;SDS011;10583;49.084;8.646;2023-01-05T06:06:52;1.03;;;1.03;;
20844;SDS011;10583;49.084;8.646;2023-01-05T06:09:19;1.00;;;1.00;;
20844;SDS011;10583;49.084;8.646;2023-01-05T06:11:45;0.90;;;0.90;;
20844;SDS011;10583;49.084;8.646;2023-01-05T06:14:12;0.90;;;0.90;;
20844;SDS011;10583;49.084;8.646;2023-01-05T06:16:38;0.70;;;0.70;;
20844;SDS011;10583;49.084;8.646;2023-01-05T06:19:05;1.13;;;1.13;;
20844;SDS011;10583;49.084;8.646;2023-01-05T06:21:32;1.43;;;1.43;;
20844;SDS011;10583;49.084;8.646;2023-01-05T06:24:00;1.00;;;1.00;;
20844;SDS011;10583;49.084;8.646;2023-01-05T06:26:27;1.10;;;1.10;;
20844;SDS011;10583;49.084;8.646;2023-01-05T06:28:53;1.07;;;1.07;;
20844;SDS011;10583;49.084;8.646;2023-01-05T06:31:20;1.00;;;1.00;;
20844;SDS011;10583;49.084;8.646;2023-01-05T06:33:47;1.20;;;1.20;;
20844;SDS011;10583;49.084;8.646;2023-01-05T06:36:13;1.20;;;1.20;;
20844;SDS011;10583;49.084;8.646;2023-01-05T06:38:40;1.00;;;1.00;;
20844;SDS011;10583;49.084;8.646;2023-01-05T06:41:08;1.30;;;1.30;;
20844;SDS011;10583;49.084;8.646;2023-01-05T06:43:34;1.47;;;1.47;;
20844;SDS011;10583;49.084;8.646;2023-01-05T06:46:01;1.40;;;1.40;;
20844;SDS011;10583;49.084;8.646;2023-01-05T06:48:28;1.73;;;1.73;;
20844;SDS011;10583;49.084;8.646;2023-01-05T06:50:54;1.90;;;1.90;;
20844;SDS011;10583;49.084;8.646;2023-01-05T06:53:21;3.33;;;3.33;;
20844;SDS011;10583;49.084;8.646;2023-01-05T06:55:48;1.30;;;1.30;;
20844;SDS011;10583;49.084;8.646;2023-01-05T06:58:16;1.50;;;1.50;;
20844;SDS011;10583;49.084;8.646;2023-01-05T07:00:42;1.93;;;1.93;;
20844;SDS011;10583;49.084;8.646;2023-01-05T07:03:10;2.20;;;2.20;;
20844;SDS011;10583;49.084;8.646;2023-01-05T07:05:38;3.80;;;3.80;;
20844;SDS011;10583;49.084;8.646;2023-01-05T07:08:05;3.37;;;3.37;;
20844;SDS011;10583;49.084;8.646;2023-01-05T07:10:32;3.07;;;3.07;;
20844;SDS011;10583;49.084;8.646;2023-01-05T07:12:59;2.73;;;2.73;;
20844;SDS011;10583;49.084;8.646;2023-01-05T07:15:27;2.70;;;2.70;;
20844;SDS011;10583;49.084;8.646;2023-01-05T07:17:54;2.90;;;2.90;;
20844;SDS011;10583;49.084;8.646;2023-01-05T07:20:21;2.33;;;2.33;;
20844;SDS011;10583;49.084;8.646;2023-01-05T07:22:47;2.50;;;2.50;;
20844;SDS011;10583;49.084;8.646;2023-01-05T07:25:14;2.20;;;2.20;;
20844;SDS011;10583;49.084;8.646;2023-01-05T07:27:41;2.30;;;2.30;;
20844;SDS011;10583;49.084;8.646;2023-01-05T07:30:08;2.30;;;2.30;;
20844;SDS011;10583;49.084;8.646;2023-01-05T07:32:37;2.07;;;2.07;;
20844;SDS011;10583;49.084;8.646;2023-01-05T07:35:04;1.97;;;1.97;;
20844;SDS011;10583;49.084;8.646;2023-01-05T07:37:31;2.50;;;2.50;;
20844;SDS011;10583;49.084;8.646;2023-01-05T07:39:57;2.83;;;2.83;;
20844;SDS011;10583;49.084;8.646;2023-01-05T07:42:24;2.63;;;2.63;;
20844;SDS011;10583;49.084;8.646;2023-01-05T07:44:51;3.00;;;3.00;;
20844;SDS011;10583;49.084;8.646;2023-01-05T07:47:17;3.20;;;3.20;;
20844;SDS011;10583;49.084;8.646;2023-01-05T07:49:45;2.43;;;2.43;;
20844;SDS011;10583;49.084;8.646;2023-01-05T07:52:12;2.57;;;2.57;;
20844;SDS011;10583;49.084;8.646;2023-01-05T07:54:39;2.40;;;2.40;;
20844;SDS011;10583;49.084;8.646;2023-01-05T07:57:05;2.60;;;2.60;;
20844;SDS011;10583;49.084;8.646;2023-01-05T07:59:32;2.90;;;2.90;;
20844;SDS011;10583;49.084;8.646;2023-01-05T08:01:59;3.43;;;3.43;;
20844;SDS011;10583;49.084;8.646;2023-01-05T08:04:25;2.63;;;2.63;;
20844;SDS011;10583;49.084;8.646;2023-01-05T08:06:53;3.10;;;3.10;;
20844;SDS011;10583;49.084;8.646;2023-01-05T08:09:20;2.57;;;2.57;;
20844;SDS011;10583;49.084;8.646;2023-01-05T08:12:05;2.67;;;2.67;;
20844;SDS011;10583;49.084;8.646;2023-01-05T08:14:32;3.10;;;3.10;;
20844;SDS011;10583;49.084;8.646;2023-01-05T08:16:58;3.07;;;3.07;;
20844;SDS011;10583;49.084;8.646;2023-01-05T08:19:25;2.63;;;2.63;;
20844;SDS011;10583;49.084;8.646;2023-01-05T08:21:52;2.60;;;2.60;;
20844;SDS011;10583;49.084;8.646;2023-01-05T08:24:20;2.90;;;2.90;;
20844;SDS011;10583;49.084;8.646;2023-01-05T08:26:48;2.33;;;2.33;;
20844;SDS011;10583;49.084;8.646;2023-01-05T08:29:14;2.17;;;2.17;;
20844;SDS011;10583;49.084;8.646;2023-01-05T08:31:41;1.90;;;1.90;;
20844;SDS011;10583;49.084;8.646;2023-01-05T08:34:08;2.30;;;2.30;;
20844;SDS011;10583;49.084;8.646;2023-01-05T08:36:34;2.43;;;2.43;;
20844;SDS011;10583;49.084;8.646;2023-01-05T08:39:02;3.00;;;3.00;;
20844;SDS011;10583;49.084;8.646;2023-01-05T08:41:30;2.67;;;2.67;;
20844;SDS011;10583;49.084;8.646;2023-01-05T08:44:00;2.53;;;2.53;;
20844;SDS011;10583;49.084;8.646;2023-01-05T08:46:29;2.40;;;2.40;;
20844;SDS011;10583;49.084;8.646;2023-01-05T08:48:58;2.57;;;2.57;;
20844;SDS011;10583;49.084;8.646;2023-01-05T08:51:26;2.50;;;2.50;;
20844;SDS011;10583;49.084;8.646;2023-01-05T08:53:54;2.77;;;2.77;;
20844;SDS011;10583;49.084;8.646;2023-01-05T08:56:23;2.13;;;2.13;;
20844;SDS011;10583;49.084;8.646;2023-01-05T08:58:51;2.60;;;2.60;;
20844;SDS011;10583;49.084;8.646;2023-01-05T09:01:20;2.37;;;2.37;;
20844;SDS011;10583;49.084;8.646;2023-01-05T09:03:47;2.43;;;2.43;;
20844;SDS011;10583;49.084;8.646;2023-01-05T09:06:14;2.43;;;2.43;;
20844;SDS011;10583;49.084;8.646;2023-01-05T09:08:41;2.57;;;2.57;;
20844;SDS011;10583;49.084;8.646;2023-01-05T09:11:10;3.23;;;3.23;;
20844;SDS011;10583;49.084;8.646;2023-01-05T09:13:40;3.27;;;3.27;;
20844;SDS011;10583;49.084;8.646;2023-01-05T09:16:08;3.40;;;3.40;;
20844;SDS011;10583;49.084;8.646;2023-01-05T09:18:36;2.90;;;2.90;;
20844;SDS011;10583;49.084;8.646;2023-01-05T09:21:04;2.17;;;2.17;;
20844;SDS011;10583;49.084;8.646;2023-01-05T09:23:31;2.53;;;2.53;;
20844;SDS011;10583;49.084;8.646;2023-01-05T09:25:59;3.00;;;3.00;;
20844;SDS011;10583;49.084;8.646;2023-01-05T09:28:25;3.00;;;3.00;;
20844;SDS011;10583;49.084;8.646;2023-01-05T09:30:53;2.27;;;2.27;;
20844;SDS011;10583;49.084;8.646;2023-01-05T09:33:20;2.80;;;2.80;;
20844;SDS011;10583;49.084;8.646;2023-01-05T09:35:51;2.50;;;2.50;;
20844;SDS011;10583;49.084;8.646;2023-01-05T09:38:19;2.80;;;2.80;;
20844;SDS011;10583;49.084;8.646;2023-01-05T09:40:46;2.73;;;2.73;;
20844;SDS011;10583;49.084;8.646;2023-01-05T09:43:19;2.50;;;2.50;;
20844;SDS011;10583;49.084;8.646;2023-01-05T09:45:50;2.80;;;2.80;;
20844;SDS011;10583;49.084;8.646;2023-01-05T09:48:18;2.83;;;2.83;;
20844;SDS011;10583;49.084;8.646;2023-01-05T09:50:48;2.80;;;2.80;;
20844;SDS011;10583;49.084;8.646;2023-01-05T09:53:16;2.70;;;2.70;;
20844;SDS011;10583;49.084;8.646;2023-01-05T09:55:50;2.97;;;2.97;;
20844;SDS011;10583;49.084;8.646;2023-01-05T09:58:19;3.60;;;3.50;;
20844;SDS011;10583;49.084;8.646;2023-01-05T10:00:51;3.13;;;3.13;;
20844;SDS011;10583;49.084;8.646;2023-01-05T10:03:29;3.40;;;3.40;;
20844;SDS011;10583;49.084;8.646;2023-01-05T10:05:58;3.50;;;3.50;;
20844;SDS011;10583;49.084;8.646;2023-01-05T10:08:27;2.87;;;2.87;;
20844;SDS011;10583;49.084;8.646;2023-01-05T10:11:00;3.40;;;3.40;;
20844;SDS011;10583;49.084;8.646;2023-01-05T10:13:50;3.37;;;3.37;;
20844;SDS011;10583;49.084;8.646;2023-01-05T10:16:23;3.47;;;3.47;;
20844;SDS011;10583;49.084;8.646;2023-01-05T10:18:51;3.37;;;3.37;;
20844;SDS011;10583;49.084;8.646;2023-01-05T10:21:20;3.43;;;3.43;;
20844;SDS011;10583;49.084;8.646;2023-01-05T10:23:59;3.70;;;3.60;;
20844;SDS011;10583;49.084;8.646;2023-01-05T10:26:36;3.67;;;3.67;;
20844;SDS011;10583;49.084;8.646;2023-01-05T10:29:09;3.57;;;3.57;;
20844;SDS011;10583;49.084;8.646;2023-01-05T10:31:42;3.20;;;3.20;;
20844;SDS011;10583;49.084;8.646;2023-01-05T10:34:17;3.80;;;3.80;;
20844;SDS011;10583;49.084;8.646;2023-01-05T10:36:52;3.97;;;3.90;;
20844;SDS011;10583;49.084;8.646;2023-01-05T10:39:41;3.43;;;3.43;;
20844;SDS011;10583;49.084;8.646;2023-01-05T10:42:22;3.70;;;3.70;;
20844;SDS011;10583;49.084;8.646;2023-01-05T10:45:01;3.67;;;3.67;;
20844;SDS011;10583;49.084;8.646;2023-01-05T10:47:31;3.87;;;3.87;;
20844;SDS011;10583;49.084;8.646;2023-01-05T10:50:25;3.20;;;3.20;;
20844;SDS011;10583;49.084;8.646;2023-01-05T10:52:58;3.50;;;3.50;;
20844;SDS011;10583;49.084;8.646;2023-01-05T10:55:28;3.60;;;3.60;;
20844;SDS011;10583;49.084;8.646;2023-01-05T10:57:55;3.60;;;3.60;;
20844;SDS011;10583;49.084;8.646;2023-01-05T11:00:36;3.50;;;3.50;;
20844;SDS011;10583;49.084;8.646;2023-01-05T11:03:05;3.70;;;3.70;;
20844;SDS011;10583;49.084;8.646;2023-01-05T11:05:40;3.53;;;3.53;;
20844;SDS011;10583;49.084;8.646;2023-01-05T11:08:12;3.57;;;3.57;;
20844;SDS011;10583;49.084;8.646;2023-01-05T11:10:46;3.23;;;3.23;;
20844;SDS011;10583;49.084;8.646;2023-01-05T11:13:17;3.50;;;3.50;;
20844;SDS011;10583;49.084;8.646;2023-01-05T11:15:51;4.47;;;4.37;;
20844;SDS011;10583;49.084;8.646;2023-01-05T11:18:23;3.70;;;3.70;;
20844;SDS011;10583;49.084;8.646;2023-01-05T11:21:10;3.17;;;3.17;;
20844;SDS011;10583;49.084;8.646;2023-01-05T11:23:40;3.77;;;3.77;;
20844;SDS011;10583;49.084;8.646;2023-01-05T11:26:17;3.40;;;3.40;;
20844;SDS011;10583;49.084;8.646;2023-01-05T11:29:03;3.50;;;3.50;;
20844;SDS011;10583;49.084;8.646;2023-01-05T11:31:38;3.40;;;3.40;;
20844;SDS011;10583;49.084;8.646;2023-01-05T11:34:11;3.27;;;3.27;;
20844;SDS011;10583;49.084;8.646;2023-01-05T11:36:49;4.00;;;4.00;;
20844;SDS011;10583;49.084;8.646;2023-01-05T11:39:18;4.10;;;4.00;;
20844;SDS011;10583;49.084;8.646;2023-01-05T11:41:52;3.73;;;3.73;;
20844;SDS011;10583;49.084;8.646;2023-01-05T11:44:29;3.77;;;3.70;;
20844;SDS011;10583;49.084;8.646;2023-01-05T11:46:57;3.77;;;3.70;;
20844;SDS011;10583;49.084;8.646;2023-01-05T11:49:24;3.50;;;3.50;;
20844;SDS011;10583;49.084;8.646;2023-01-05T11:51:52;4.17;;;4.17;;
20844;SDS011;10583;49.084;8.646;2023-01-05T11:54:27;4.27;;;4.17;;
20844;SDS011;10583;49.084;8.646;2023-01-05T11:57:11;4.27;;;4.27;;
20844;SDS011;10583;49.084;8.646;2023-01-05T11:59:39;4.33;;;4.27;;
20844;SDS011;10583;49.084;8.646;2023-01-05T12:02:12;3.80;;;3.73;;
20844;SDS011;10583;49.084;8.646;2023-01-05T12:04:59;4.47;;;4.37;;
20844;SDS011;10583;49.084;8.646;2023-01-05T12:07:37;3.87;;;3.87;;
20844;SDS011;10583;49.084;8.646;2023-01-05T12:10:17;3.40;;;3.40;;
20844;SDS011;10583;49.084;8.646;2023-01-05T12:13:01;3.73;;;3.63;;
20844;SDS011;10583;49.084;8.646;2023-01-05T12:15:36;3.67;;;3.57;;
20844;SDS011;10583;49.084;8.646;2023-01-05T12:18:23;4.30;;;4.20;;
20844;SDS011;10583;49.084;8.646;2023-01-05T12:21:20;3.37;;;3.37;;
20844;SDS011;10583;49.084;8.646;2023-01-05T12:23:53;4.30;;;4.20;;
20844;SDS011;10583;49.084;8.646;2023-01-05T12:26:32;4.13;;;4.03;;
20844;SDS011;10583;49.084;8.646;2023-01-05T12:29:17;3.47;;;3.47;;
20844;SDS011;10583;49.084;8.646;2023-01-05T12:32:01;3.53;;;3.47;;
20844;SDS011;10583;49.084;8.646;2023-01-05T12:34:53;4.47;;;4.37;;
20844;SDS011;10583;49.084;8.646;2023-01-05T12:37:43;3.60;;;3.60;;
20844;SDS011;10583;49.084;8.646;2023-01-05T12:40:25;3.60;;;3.60;;
20844;SDS011;10583;49.084;8.646;2023-01-05T12:43:03;3.93;;;3.83;;
20844;SDS011;10583;49.084;8.646;2023-01-05T12:45:38;3.47;;;3.40;;
20844;SDS011;10583;49.084;8.646;2023-01-05T12:48:24;3.33;;;3.33;;
20844;SDS011;10583;49.084;8.646;2023-01-05T12:50:56;3.60;;;3.50;;
20844;SDS011;10583;49.084;8.646;2023-01-05T12:53:35;3.70;;;3.60;;
20844;SDS011;10583;49.084;8.646;2023-01-05T12:56:18;3.30;;;3.30;;
20844;SDS011;10583;49.084;8.646;2023-01-05T12:59:01;5.07;;;4.97;;
20844;SDS011;10583;49.084;8.646;2023-01-05T13:01:38;3.90;;;3.90;;
20844;SDS011;10583;49.084;8.646;2023-01-05T13:04:11;3.53;;;3.43;;
20844;SDS011;10583;49.084;8.646;2023-01-05T13:06:47;4.00;;;3.90;;
20844;SDS011;10583;49.084;8.646;2023-01-05T13:09:18;3.40;;;3.40;;
20844;SDS011;10583;49.084;8.646;2023-01-05T13:11:50;3.60;;;3.60;;
20844;SDS011;10583;49.084;8.646;2023-01-05T13:14:21;3.87;;;3.77;;
20844;SDS011;10583;49.084;8.646;2023-01-05T13:16:53;3.73;;;3.67;;
20844;SDS011;10583;49.084;8.646;2023-01-05T13:19:24;3.03;;;3.03;;
20844;SDS011;10583;49.084;8.646;2023-01-05T13:21:54;3.60;;;3.60;;
20844;SDS011;10583;49.084;8.646;2023-01-05T13:24:25;2.97;;;2.97;;
20844;SDS011;10583;49.084;8.646;2023-01-05T13:26:59;3.57;;;3.57;;
20844;SDS011;10583;49.084;8.646;2023-01-05T13:29:29;4.40;;;4.30;;
20844;SDS011;10583;49.084;8.646;2023-01-05T13:32:03;3.90;;;3.80;;
20844;SDS011;10583;49.084;8.646;2023-01-05T13:35:03;4.27;;;4.17;;
20844;SDS011;10583;49.084;8.646;2023-01-05T13:37:56;3.73;;;3.70;;
20844;SDS011;10583;49.084;8.646;2023-01-05T13:40:43;3.47;;;3.47;;
20844;SDS011;10583;49.084;8.646;2023-01-05T13:43:55;3.97;;;3.97;;
20844;SDS011;10583;49.084;8.646;2023-01-05T13:46:51;3.90;;;3.90;;
20844;SDS011;10583;49.084;8.646;2023-01-05T13:49:37;4.00;;;4.00;;
20844;SDS011;10583;49.084;8.646;2023-01-05T13:52:26;3.80;;;3.80;;
20844;SDS011;10583;49.084;8.646;2023-01-05T13:55:02;3.93;;;3.83;;
20844;SDS011;10583;49.084;8.646;2023-01-05T13:57:35;3.83;;;3.73;;
20844;SDS011;10583;49.084;8.646;2023-01-05T14:00:05;3.53;;;3.53;;
20844;SDS011;10583;49.084;8.646;2023-01-05T14:02:35;4.00;;;3.93;;
20844;SDS011;10583;49.084;8.646;2023-01-05T14:05:04;3.80;;;3.73;;
20844;SDS011;10583;49.084;8.646;2023-01-05T14:07:40;4.30;;;4.27;;
20844;SDS011;10583;49.084;8.646;2023-01-05T14:10:17;3.97;;;3.87;;
20844;SDS011;10583;49.084;8.646;2023-01-05T14:12:47;4.30;;;4.20;;
20844;SDS011;10583;49.084;8.646;2023-01-05T14:15:30;4.00;;;3.90;;
20844;SDS011;10583;49.084;8.646;2023-01-05T14:18:02;3.67;;;3.67;;
20844;SDS011;10583;49.084;8.646;2023-01-05T14:20:37;4.30;;;4.20;;
20844;SDS011;10583;49.084;8.646;2023-01-05T14:26:10;4.23;;;4.13;;
20844;SDS011;10583;49.084;8.646;2023-01-05T14:28:41;4.40;;;4.40;;
20844;SDS011;10583;49.084;8.646;2023-01-05T14:34:18;3.90;;;3.90;;
20844;SDS011;10583;49.084;8.646;2023-01-05T14:37:00;3.93;;;3.83;;
20844;SDS011;10583;49.084;8.646;2023-01-05T14:39:30;4.43;;;4.33;;
20844;SDS011;10583;49.084;8.646;2023-01-05T14:42:05;3.90;;;3.80;;
20844;SDS011;10583;49.084;8.646;2023-01-05T14:44:42;4.80;;;4.70;;
20844;SDS011;10583;49.084;8.646;2023-01-05T14:47:15;3.63;;;3.53;;
20844;SDS011;10583;49.084;8.646;2023-01-05T14:49:50;4.10;;;4.00;;
20844;SDS011;10583;49.084;8.646;2023-01-05T14:52:19;4.73;;;4.63;;
20844;SDS011;10583;49.084;8.646;2023-01-05T14:55:19;5.03;;;4.93;;
20844;SDS011;10583;49.084;8.646;2023-01-05T14:57:47;3.83;;;3.80;;
20844;SDS011;10583;49.084;8.646;2023-01-05T15:00:16;4.23;;;4.23;;
20844;SDS011;10583;49.084;8.646;2023-01-05T15:02:57;3.73;;;3.73;;
20844;SDS011;10583;49.084;8.646;2023-01-05T15:05:30;3.70;;;3.60;;
20844;SDS011;10583;49.084;8.646;2023-01-05T15:08:05;3.73;;;3.63;;
20844;SDS011;10583;49.084;8.646;2023-01-05T15:13:49;4.20;;;4.10;;
20844;SDS011;10583;49.084;8.646;2023-01-05T15:16:56;4.27;;;4.17;;
20844;SDS011;10583;49.084;8.646;2023-01-05T15:19:48;3.90;;;3.80;;
20844;SDS011;10583;49.084;8.646;2023-01-05T15:22:39;4.70;;;4.67;;
20844;SDS011;10583;49.084;8.646;2023-01-05T15:25:25;3.83;;;3.80;;
20844;SDS011;10583;49.084;8.646;2023-01-05T15:28:05;4.63;;;4.53;;
20844;SDS011;10583;49.084;8.646;2023-01-05T15:30:55;4.00;;;4.00;;